sensor_id;sensor_type;location;lat;lon;timestamp;temperature;humidity
26041;DHT22;13816;53.628;9.950;2023-04-20T12:15:33;10.00;99.90
26041;DHT22;13816;53.628;9.950;2023-04-20T12:18:00;9.80;99.90
26041;DHT22;13816;53.628;9.950;2023-04-20T12:20:27;9.60;99.90
26041;DHT22;13816;53.628;9.950;2023-04-20T12:22:55;9.50;99.90
26041;DHT22;13816;53.628;9.950;2023-04-20T12:25:27;9.50;99.90
26041;DHT22;13816;53.628;9.950;2023-04-20T12:27:54;9.50;99.90
26041;DHT22;13816;53.628;9.950;2023-04-20T12:30:21;9.50;99.90
26041;DHT22;13816;53.628;9.950;2023-04-20T12:32:48;9.40;99.90
26041;DHT22;13816;53.628;9.950;2023-04-20T12:35:15;9.40;99.90
26041;DHT22;13816;53.628;9.950;2023-04-20T12:37:42;9.40;99.90
26041;DHT22;13816;53.628;9.950;2023-04-20T12:40:10;9.40;99.90
26041;DHT22;13816;53.628;9.950;2023-04-20T12:42:37;9.40;99.90
26041;DHT22;13816;53.628;9.950;2023-04-20T12:45:05;9.50;99.90
26041;DHT22;13816;53.628;9.950;2023-04-20T12:47:32;9.40;99.90
26041;DHT22;13816;53.628;9.950;2023-04-20T12:49:59;9.40;99.90
26041;DHT22;13816;53.628;9.950;2023-04-20T12:52:26;9.40;99.90
26041;DHT22;13816;53.628;9.950;2023-04-20T12:54:54;9.40;99.90
26041;DHT22;13816;53.628;9.950;2023-04-20T12:57:21;9.40;99.90
26041;DHT22;13816;53.628;9.950;2023-04-20T12:59:48;9.50;99.90
26041;DHT22;13816;53.628;9.950;2023-04-20T13:02:16;9.60;99.90
26041;DHT22;13816;53.628;9.950;2023-04-20T13:04:43;9.70;99.90
26041;DHT22;13816;53.628;9.950;2023-04-20T13:07:12;9.70;99.90
26041;DHT22;13816;53.628;9.950;2023-04-20T13:09:39;9.70;99.90
26041;DHT22;13816;53.628;9.950;2023-04-20T13:12:06;9.80;99.90
26041;DHT22;13816;53.628;9.950;2023-04-20T13:14:33;9.80;99.90
26041;DHT22;13816;53.628;9.950;2023-04-20T13:17:00;9.90;99.90
26041;DHT22;13816;53.628;9.950;2023-04-20T13:19:29;9.80;99.90
26041;DHT22;13816;53.628;9.950;2023-04-20T13:21:56;9.80;99.90
26041;DHT22;13816;53.628;9.950;2023-04-20T13:24:23;9.80;99.90
26041;DHT22;13816;53.628;9.950;2023-04-20T13:26:53;9.90;99.90
26041;DHT22;13816;53.628;9.950;2023-04-20T13:29:24;9.90;99.90
26041;DHT22;13816;53.628;9.950;2023-04-20T13:31:51;9.90;99.90
26041;DHT22;13816;53.628;9.950;2023-04-20T13:34:19;10.00;99.90
26041;DHT22;13816;53.628;9.950;2023-04-20T13:36:46;10.00;99.90
26041;DHT22;13816;53.628;9.950;2023-04-20T13:39:14;10.20;99.90
26041;DHT22;13816;53.628;9.950;2023-04-20T13:41:41;10.20;99.90
26041;DHT22;13816;53.628;9.950;2023-04-20T13:44:08;10.30;99.90
26041;DHT22;13816;53.628;9.950;2023-04-20T13:46:46;10.40;99.90
26041;DHT22;13816;53.628;9.950;2023-04-20T13:49:13;10.40;99.90
26041;DHT22;13816;53.628;9.950;2023-04-20T13:51:42;10.40;99.90
26041;DHT22;13816;53.628;9.950;2023-04-20T13:54:09;10.50;99.90
26041;DHT22;13816;53.628;9.950;2023-04-20T13:56:36;10.60;99.90
26041;DHT22;13816;53.628;9.950;2023-04-20T13:59:03;10.70;99.90
26041;DHT22;13816;53.628;9.950;2023-04-20T14:01:33;10.60;99.90
26041;DHT22;13816;53.628;9.950;2023-04-20T14:04:01;10.70;99.90
26041;DHT22;13816;53.628;9.950;2023-04-20T14:06:31;10.70;99.90
26041;DHT22;13816;53.628;9.950;2023-04-20T14:08:58;10.80;99.90
26041;DHT22;13816;53.628;9.950;2023-04-20T14:11:25;10.90;99.90
26041;DHT22;13816;53.628;9.950;2023-04-20T14:13:52;10.90;99.90
26041;DHT22;13816;53.628;9.950;2023-04-20T14:16:19;10.90;99.90
26041;DHT22;13816;53.628;9.950;2023-04-20T14:18:46;11.00;99.90
26041;DHT22;13816;53.628;9.950;2023-04-20T14:21:13;11.10;99.90
26041;DHT22;13816;53.628;9.950;2023-04-20T14:23:40;11.10;99.90
26041;DHT22;13816;53.628;9.950;2023-04-20T14:26:07;11.10;99.90
26041;DHT22;13816;53.628;9.950;2023-04-20T14:28:34;11.10;99.90
26041;DHT22;13816;53.628;9.950;2023-04-20T14:31:01;11.20;99.90
26041;DHT22;13816;53.628;9.950;2023-04-20T14:33:28;11.10;99.90
26041;DHT22;13816;53.628;9.950;2023-04-20T14:35:56;11.20;99.90
26041;DHT22;13816;53.628;9.950;2023-04-20T14:38:23;11.20;99.90
26041;DHT22;13816;53.628;9.950;2023-04-20T14:40:50;11.30;99.90
26041;DHT22;13816;53.628;9.950;2023-04-20T14:43:18;11.40;99.90
26041;DHT22;13816;53.628;9.950;2023-04-20T14:45:45;11.30;99.90
26041;DHT22;13816;53.628;9.950;2023-04-20T14:48:12;11.40;99.90
26041;DHT22;13816;53.628;9.950;2023-04-20T14:50:39;11.50;99.90
26041;DHT22;13816;53.628;9.950;2023-04-20T14:53:06;11.50;99.90
26041;DHT22;13816;53.628;9.950;2023-04-20T14:55:33;11.50;99.90
26041;DHT22;13816;53.628;9.950;2023-04-20T14:58:00;11.60;99.90
26041;DHT22;13816;53.628;9.950;2023-04-20T15:00:30;11.60;99.90
26041;DHT22;13816;53.628;9.950;2023-04-20T15:02:57;11.60;99.90
26041;DHT22;13816;53.628;9.950;2023-04-20T15:05:26;11.60;99.90
26041;DHT22;13816;53.628;9.950;2023-04-20T15:07:53;11.70;99.90
26041;DHT22;13816;53.628;9.950;2023-04-20T15:10:20;11.80;99.90
26041;DHT22;13816;53.628;9.950;2023-04-20T15:12:47;11.90;99.90
26041;DHT22;13816;53.628;9.950;2023-04-20T15:15:15;11.90;99.90
26041;DHT22;13816;53.628;9.950;2023-04-20T15:17:46;11.90;99.90
26041;DHT22;13816;53.628;9.950;2023-04-20T15:20:13;12.00;99.90
26041;DHT22;13816;53.628;9.950;2023-04-20T15:22:43;12.10;99.90
26041;DHT22;13816;53.628;9.950;2023-04-20T15:25:10;12.10;99.90
26041;DHT22;13816;53.628;9.950;2023-04-20T15:27:37;12.10;99.90
26041;DHT22;13816;53.628;9.950;2023-04-20T15:30:05;12.20;99.90
26041;DHT22;13816;53.628;9.950;2023-04-20T15:32:33;12.30;99.90
26041;DHT22;13816;53.628;9.950;2023-04-20T15:35:00;12.30;99.90
26041;DHT22;13816;53.628;9.950;2023-04-20T15:37:27;12.30;99.90
26041;DHT22;13816;53.628;9.950;2023-04-20T15:39:54;12.40;99.90
26041;DHT22;13816;53.628;9.950;2023-04-20T15:42:25;12.50;99.90
26041;DHT22;13816;53.628;9.950;2023-04-20T15:44:53;12.50;99.90
26041;DHT22;13816;53.628;9.950;2023-04-20T15:47:20;12.60;99.90
26041;DHT22;13816;53.628;9.950;2023-04-20T15:49:47;12.70;99.90
26041;DHT22;13816;53.628;9.950;2023-04-20T15:52:14;12.80;99.90
26041;DHT22;13816;53.628;9.950;2023-04-20T15:54:41;12.80;99.90
26041;DHT22;13816;53.628;9.950;2023-04-20T15:57:09;12.90;99.90
26041;DHT22;13816;53.628;9.950;2023-04-20T15:59:36;12.90;99.90
26041;DHT22;13816;53.628;9.950;2023-04-20T16:02:03;13.00;99.90
26041;DHT22;13816;53.628;9.950;2023-04-20T16:04:30;13.00;99.90
26041;DHT22;13816;53.628;9.950;2023-04-20T16:06:58;13.00;99.90
26041;DHT22;13816;53.628;9.950;2023-04-20T16:09:25;13.10;99.90
26041;DHT22;13816;53.628;9.950;2023-04-20T16:11:52;13.10;99.90
26041;DHT22;13816;53.628;9.950;2023-04-20T16:14:18;13.10;99.90
26041;DHT22;13816;53.628;9.950;2023-04-20T16:16:46;13.10;99.90
26041;DHT22;13816;53.628;9.950;2023-04-20T16:19:13;13.00;99.90
26041;DHT22;13816;53.628;9.950;2023-04-20T16:21:40;12.90;99.90
26041;DHT22;13816;53.628;9.950;2023-04-20T16:24:09;12.80;99.90
26041;DHT22;13816;53.628;9.950;2023-04-20T16:26:36;12.80;99.90
26041;DHT22;13816;53.628;9.950;2023-04-20T16:29:05;12.70;99.90
26041;DHT22;13816;53.628;9.950;2023-04-20T16:31:32;12.60;99.90
26041;DHT22;13816;53.628;9.950;2023-04-20T16:34:02;12.60;99.90
26041;DHT22;13816;53.628;9.950;2023-04-20T16:36:29;12.50;99.90
26041;DHT22;13816;53.628;9.950;2023-04-20T16:38:56;12.40;99.90
26041;DHT22;13816;53.628;9.950;2023-04-20T16:41:24;12.40;99.90
26041;DHT22;13816;53.628;9.950;2023-04-20T16:43:51;12.30;99.90
26041;DHT22;13816;53.628;9.950;2023-04-20T16:46:18;12.30;99.90
26041;DHT22;13816;53.628;9.950;2023-04-20T16:48:48;12.20;99.90
26041;DHT22;13816;53.628;9.950;2023-04-20T16:51:16;12.20;99.90
26041;DHT22;13816;53.628;9.950;2023-04-20T16:53:43;12.10;99.90
26041;DHT22;13816;53.628;9.950;2023-04-20T16:56:11;12.10;99.90
26041;DHT22;13816;53.628;9.950;2023-04-20T16:58:38;12.00;99.90
26041;DHT22;13816;53.628;9.950;2023-04-20T17:01:06;12.00;99.90
26041;DHT22;13816;53.628;9.950;2023-04-20T17:03:33;12.00;99.90
26041;DHT22;13816;53.628;9.950;2023-04-20T17:06:00;12.00;99.90
26041;DHT22;13816;53.628;9.950;2023-04-20T17:08:33;11.90;99.90
26041;DHT22;13816;53.628;9.950;2023-04-20T17:11:00;11.90;99.90
26041;DHT22;13816;53.628;9.950;2023-04-20T17:13:27;11.90;99.90
26041;DHT22;13816;53.628;9.950;2023-04-20T17:15:54;11.80;99.90
26041;DHT22;13816;53.628;9.950;2023-04-20T17:18:22;11.80;99.90
26041;DHT22;13816;53.628;9.950;2023-04-20T17:20:49;11.80;99.90
26041;DHT22;13816;53.628;9.950;2023-04-20T17:23:16;11.80;99.90
26041;DHT22;13816;53.628;9.950;2023-04-20T17:25:44;11.70;99.90
26041;DHT22;13816;53.628;9.950;2023-04-20T17:28:13;11.60;99.90
26041;DHT22;13816;53.628;9.950;2023-04-20T17:30:40;11.60;99.90
26041;DHT22;13816;53.628;9.950;2023-04-20T17:33:10;11.50;99.90
26041;DHT22;13816;53.628;9.950;2023-04-20T17:35:38;11.50;99.90
26041;DHT22;13816;53.628;9.950;2023-04-20T17:38:05;11.40;99.90
26041;DHT22;13816;53.628;9.950;2023-04-20T17:40:32;11.40;99.90
26041;DHT22;13816;53.628;9.950;2023-04-20T17:43:00;11.30;99.90
26041;DHT22;13816;53.628;9.950;2023-04-20T17:45:28;11.30;99.90
26041;DHT22;13816;53.628;9.950;2023-04-20T17:47:55;11.20;99.90
26041;DHT22;13816;53.628;9.950;2023-04-20T17:50:22;11.20;99.90
26041;DHT22;13816;53.628;9.950;2023-04-20T17:52:49;11.20;99.90
26041;DHT22;13816;53.628;9.950;2023-04-20T17:55:17;11.10;99.90
26041;DHT22;13816;53.628;9.950;2023-04-20T17:57:44;11.00;99.90
26041;DHT22;13816;53.628;9.950;2023-04-20T18:00:12;11.00;99.90
26041;DHT22;13816;53.628;9.950;2023-04-20T18:02:39;10.90;99.90
26041;DHT22;13816;53.628;9.950;2023-04-20T18:05:07;10.90;99.90
26041;DHT22;13816;53.628;9.950;2023-04-20T18:07:34;10.80;99.90
26041;DHT22;13816;53.628;9.950;2023-04-20T18:10:02;10.80;99.90
26041;DHT22;13816;53.628;9.950;2023-04-20T18:12:30;10.80;99.90
26041;DHT22;13816;53.628;9.950;2023-04-20T18:14:57;10.80;99.90
26041;DHT22;13816;53.628;9.950;2023-04-20T18:17:24;10.80;99.90
26041;DHT22;13816;53.628;9.950;2023-04-20T18:19:51;10.70;99.90
26041;DHT22;13816;53.628;9.950;2023-04-20T18:22:18;10.70;99.90
26041;DHT22;13816;53.628;9.950;2023-04-20T18:24:45;10.60;99.90
26041;DHT22;13816;53.628;9.950;2023-04-20T18:27:26;10.60;99.90
26041;DHT22;13816;53.628;9.950;2023-04-20T18:29:53;10.60;99.90
26041;DHT22;13816;53.628;9.950;2023-04-20T18:32:21;10.50;99.90
26041;DHT22;13816;53.628;9.950;2023-04-20T18:34:48;10.60;99.90
26041;DHT22;13816;53.628;9.950;2023-04-20T18:37:15;10.50;99.90
26041;DHT22;13816;53.628;9.950;2023-04-20T18:39:45;10.50;99.90
26041;DHT22;13816;53.628;9.950;2023-04-20T18:42:12;10.50;99.90
26041;DHT22;13816;53.628;9.950;2023-04-20T18:44:39;10.50;99.90
26041;DHT22;13816;53.628;9.950;2023-04-20T18:47:06;10.40;99.90
26041;DHT22;13816;53.628;9.950;2023-04-20T18:49:33;10.50;99.90
26041;DHT22;13816;53.628;9.950;2023-04-20T18:52:01;10.40;99.90
26041;DHT22;13816;53.628;9.950;2023-04-20T18:54:28;10.40;99.90
26041;DHT22;13816;53.628;9.950;2023-04-20T18:56:55;10.30;99.90
26041;DHT22;13816;53.628;9.950;2023-04-20T18:59:25;10.30;99.90
26041;DHT22;13816;53.628;9.950;2023-04-20T19:01:52;10.30;99.90
26041;DHT22;13816;53.628;9.950;2023-04-20T19:04:20;10.20;99.90
26041;DHT22;13816;53.628;9.950;2023-04-20T19:06:48;10.20;99.90
26041;DHT22;13816;53.628;9.950;2023-04-20T19:09:15;10.10;99.90
26041;DHT22;13816;53.628;9.950;2023-04-20T19:11:42;10.20;99.90
26041;DHT22;13816;53.628;9.950;2023-04-20T19:14:10;10.10;99.90
26041;DHT22;13816;53.628;9.950;2023-04-20T19:16:38;10.10;99.90
26041;DHT22;13816;53.628;9.950;2023-04-20T19:19:05;10.00;99.90
26041;DHT22;13816;53.628;9.950;2023-04-20T19:21:32;9.90;99.90
26041;DHT22;13816;53.628;9.950;2023-04-20T19:23:59;10.00;99.90
26041;DHT22;13816;53.628;9.950;2023-04-20T19:26:27;10.00;99.90
26041;DHT22;13816;53.628;9.950;2023-04-20T19:28:54;9.90;99.90
26041;DHT22;13816;53.628;9.950;2023-04-20T19:31:23;9.90;99.90
26041;DHT22;13816;53.628;9.950;2023-04-20T19:33:52;9.90;99.90
26041;DHT22;13816;53.628;9.950;2023-04-20T19:36:21;9.80;99.90
26041;DHT22;13816;53.628;9.950;2023-04-20T19:38:48;9.80;99.90
26041;DHT22;13816;53.628;9.950;2023-04-20T19:41:15;9.80;99.90
26041;DHT22;13816;53.628;9.950;2023-04-20T19:43:42;9.70;99.90
26041;DHT22;13816;53.628;9.950;2023-04-20T19:46:09;10.20;99.90
26041;DHT22;13816;53.628;9.950;2023-04-20T19:48:37;9.70;99.90
26041;DHT22;13816;53.628;9.950;2023-04-20T19:51:04;9.80;99.90
26041;DHT22;13816;53.628;9.950;2023-04-20T19:53:32;9.60;99.90
26041;DHT22;13816;53.628;9.950;2023-04-20T19:55:59;9.60;99.90
26041;DHT22;13816;53.628;9.950;2023-04-20T19:58:26;9.60;99.90
26041;DHT22;13816;53.628;9.950;2023-04-20T20:00:54;9.60;99.90
26041;DHT22;13816;53.628;9.950;2023-04-20T20:03:23;9.50;99.90
26041;DHT22;13816;53.628;9.950;2023-04-20T20:05:50;9.50;99.90
26041;DHT22;13816;53.628;9.950;2023-04-20T20:08:17;9.50;99.90
26041;DHT22;13816;53.628;9.950;2023-04-20T20:10:46;9.50;99.90
26041;DHT22;13816;53.628;9.950;2023-04-20T20:13:13;9.40;99.90
26041;DHT22;13816;53.628;9.950;2023-04-20T20:15:40;9.40;99.90
26041;DHT22;13816;53.628;9.950;2023-04-20T20:18:07;9.30;99.90
26041;DHT22;13816;53.628;9.950;2023-04-20T20:20:37;9.30;99.90
26041;DHT22;13816;53.628;9.950;2023-04-20T20:23:04;9.30;99.90
26041;DHT22;13816;53.628;9.950;2023-04-20T20:25:31;9.30;99.90
